createdAt,value
2022-08-11T00:00:15.602Z,18.50
2022-08-11T00:03:08.524Z,18.50
2022-08-11T00:05:55.980Z,18.50
2022-08-11T00:08:28.290Z,18.50
2022-08-11T00:11:05.272Z,18.50
2022-08-11T00:13:46.893Z,18.40
2022-08-11T00:16:23.110Z,18.50
2022-08-11T00:18:58.794Z,18.50
2022-08-11T00:22:02.450Z,18.50
2022-08-11T00:24:18.871Z,18.50
2022-08-11T00:26:53.412Z,18.50
2022-08-11T00:29:23.017Z,18.50
2022-08-11T00:31:56.993Z,18.50
2022-08-11T00:34:28.974Z,18.50
2022-08-11T00:37:17.443Z,18.50
2022-08-11T00:39:54.976Z,18.50
2022-08-11T00:42:32.581Z,18.50
2022-08-11T00:45:31.220Z,18.50
2022-08-11T00:48:30.729Z,18.50
2022-08-11T00:52:04.725Z,18.50
2022-08-11T00:54:46.955Z,18.50
2022-08-11T00:57:36.877Z,18.50
2022-08-11T01:00:24.986Z,18.50
2022-08-11T01:03:21.212Z,18.50
2022-08-11T01:06:11.505Z,18.50
2022-08-11T01:09:09.479Z,18.50
2022-08-11T01:12:36.841Z,18.50
2022-08-11T01:15:27.654Z,18.50
2022-08-11T01:18:55.103Z,18.50
2022-08-11T01:22:07.424Z,18.40
2022-08-11T01:25:15.843Z,18.40
2022-08-11T01:28:21.701Z,18.40
2022-08-11T01:31:27.658Z,18.40
2022-08-11T01:34:17.750Z,18.30
2022-08-11T01:37:49.005Z,18.30
2022-08-11T01:40:53.528Z,18.20
2022-08-11T01:44:27.446Z,18.20
2022-08-11T01:47:54.140Z,18.10
2022-08-11T01:50:57.289Z,18.10
2022-08-11T01:53:45.133Z,18.00
2022-08-11T01:56:38.797Z,18.00
2022-08-11T01:59:33.595Z,17.98
2022-08-11T02:02:54.418Z,17.90
2022-08-11T02:05:50.842Z,17.90
2022-08-11T02:08:43.203Z,17.80
2022-08-11T02:11:30.659Z,17.70
2022-08-11T02:14:30.223Z,17.60
2022-08-11T02:17:48.267Z,17.50
2022-08-11T02:21:09.896Z,17.40
2022-08-11T02:24:05.070Z,17.30
2022-08-11T02:26:50.788Z,17.20
2022-08-11T02:29:38.936Z,17.20
2022-08-11T02:32:32.306Z,17.20
2022-08-11T02:35:29.767Z,17.18
2022-08-11T02:38:04.077Z,17.10
2022-08-11T02:41:01.847Z,17.00
2022-08-11T02:43:59.209Z,16.98
2022-08-11T02:46:49.317Z,16.90
2022-08-11T02:50:06.742Z,16.90
2022-08-11T02:52:51.898Z,16.82
2022-08-11T02:55:55.593Z,16.80
2022-08-11T02:59:20.512Z,16.70
2022-08-11T03:02:31.905Z,16.70
2022-08-11T03:05:17.486Z,16.60
2022-08-11T03:07:58.764Z,16.60
2022-08-11T03:10:42.968Z,16.50
2022-08-11T03:13:47.647Z,16.50
2022-08-11T03:16:46.234Z,16.50
2022-08-11T03:19:57.725Z,16.50
2022-08-11T03:23:31.032Z,16.40
2022-08-11T03:26:10.671Z,16.38
2022-08-11T03:29:25.020Z,16.30
2022-08-11T03:32:08.359Z,16.30
2022-08-11T03:34:41.386Z,16.30
2022-08-11T03:37:47.204Z,16.30
2022-08-11T03:42:01.312Z,16.30
2022-08-11T03:44:33.343Z,16.30
2022-08-11T03:47:23.417Z,16.30
2022-08-11T03:50:24.512Z,16.40
2022-08-11T03:54:01.861Z,16.40
2022-08-11T03:56:55.328Z,16.30
2022-08-11T03:59:45.931Z,16.30
2022-08-11T04:02:29.976Z,16.30
2022-08-11T04:05:48.332Z,16.30
2022-08-11T04:08:38.006Z,16.30
2022-08-11T04:11:26.354Z,16.20
2022-08-11T04:14:40.615Z,16.20
2022-08-11T04:17:23.837Z,16.20
2022-08-11T04:20:34.099Z,16.34
2022-08-11T04:24:37.236Z,16.50
2022-08-11T04:26:39.570Z,16.60
2022-08-11T04:30:03.848Z,16.80
2022-08-11T04:33:02.958Z,16.94
2022-08-11T04:35:51.428Z,17.10
2022-08-11T04:38:59.114Z,17.30
2022-08-11T04:42:21.663Z,17.48
2022-08-11T04:45:12.571Z,17.60
2022-08-11T04:48:57.444Z,17.80
2022-08-11T04:52:37.902Z,18.10
2022-08-11T04:56:11.729Z,18.20
2022-08-11T04:59:48.512Z,18.30
2022-08-11T05:02:57.647Z,18.20
2022-08-11T05:06:20.095Z,18.20
2022-08-11T05:09:26.262Z,18.20
2022-08-11T05:12:10.622Z,18.56
2022-08-11T05:15:12.070Z,19.00
2022-08-11T05:18:35.341Z,19.48
2022-08-11T05:21:29.726Z,20.00
2022-08-11T05:25:04.500Z,20.54
2022-08-11T05:28:47.513Z,21.18
2022-08-11T05:31:39.014Z,21.80
2022-08-11T05:34:42.928Z,22.26
2022-08-11T05:37:42.847Z,22.70
2022-08-11T05:40:33.447Z,23.24
2022-08-11T05:43:31.217Z,23.76
2022-08-11T05:46:25.610Z,24.24
2022-08-11T05:49:14.468Z,24.70
2022-08-11T05:52:05.607Z,25.20
2022-08-11T05:55:06.124Z,25.52
2022-08-11T05:57:50.952Z,25.84
2022-08-11T06:00:23.497Z,26.34
2022-08-11T06:03:04.432Z,26.62
2022-08-11T06:05:44.120Z,26.90
2022-08-11T06:08:15.071Z,27.00
2022-08-11T06:10:45.809Z,27.28
2022-08-11T06:13:18.736Z,27.60
2022-08-11T06:15:52.694Z,27.94
2022-08-11T06:18:22.069Z,28.34
2022-08-11T06:20:58.568Z,28.66
2022-08-11T06:23:36.200Z,29.00
2022-08-11T06:26:14.427Z,29.50
2022-08-11T06:28:46.487Z,29.82
2022-08-11T06:31:21.025Z,30.38
2022-08-11T06:34:34.659Z,30.80
2022-08-11T06:37:34.467Z,31.48
2022-08-11T06:40:40.638Z,32.30
2022-08-11T06:43:21.821Z,32.52
2022-08-11T06:46:08.835Z,33.04
2022-08-11T06:48:41.656Z,33.86
2022-08-11T06:51:14.917Z,34.18
2022-08-11T06:54:04.920Z,34.10
2022-08-11T07:00:07.811Z,34.50
2022-08-11T07:02:56.519Z,35.02
2022-08-11T07:05:44.095Z,35.48
2022-08-11T07:09:15.045Z,35.30
2022-08-11T07:12:21.412Z,35.60
2022-08-11T07:15:15.410Z,35.90
2022-08-11T07:18:12.854Z,35.70
2022-08-11T07:21:02.362Z,35.80
2022-08-11T07:23:54.669Z,36.38
2022-08-11T07:26:46.424Z,36.96
2022-08-11T07:29:16.974Z,36.60
2022-08-11T07:31:54.228Z,36.80
2022-08-11T07:34:38.574Z,37.10
2022-08-11T07:37:18.217Z,37.12
2022-08-11T07:39:50.098Z,37.20
2022-08-11T07:42:27.511Z,37.40
2022-08-11T07:45:16.432Z,37.32
2022-08-11T07:48:05.390Z,37.70
2022-08-11T07:50:56.226Z,38.10
2022-08-11T07:53:25.883Z,37.98
2022-08-11T07:55:58.600Z,37.70
2022-08-11T07:58:53.240Z,37.40
2022-08-11T08:01:44.355Z,37.74
2022-08-11T08:04:36.227Z,38.16
2022-08-11T08:07:24.984Z,38.32
2022-08-11T08:10:15.847Z,38.10
2022-08-11T08:13:04.250Z,38.10
2022-08-11T08:15:52.074Z,38.00
2022-08-11T08:18:26.751Z,37.64
2022-08-11T08:21:12.409Z,37.44
2022-08-11T08:23:46.306Z,37.30
2022-08-11T08:26:36.490Z,37.06
2022-08-11T08:29:26.677Z,36.70
2022-08-11T08:31:57.233Z,37.10
2022-08-11T08:34:27.412Z,37.10
2022-08-11T08:37:01.734Z,37.46
2022-08-11T08:39:34.866Z,37.14
2022-08-11T08:42:11.641Z,36.80
2022-08-11T08:44:57.302Z,36.88
2022-08-11T08:47:41.903Z,36.90
2022-08-11T08:50:21.742Z,37.00
2022-08-11T08:53:07.804Z,37.44
2022-08-11T08:55:37.002Z,37.30
2022-08-11T08:58:06.388Z,37.30
2022-08-11T09:00:45.829Z,36.70
2022-08-11T09:03:39.932Z,35.88
2022-08-11T09:06:04.638Z,35.80
2022-08-11T09:08:35.500Z,35.90
2022-08-11T09:11:24.830Z,35.80
2022-08-11T09:14:05.105Z,35.98
2022-08-11T09:16:39.725Z,35.90
2022-08-11T09:19:09.635Z,35.80
2022-08-11T09:21:49.082Z,35.66
2022-08-11T09:24:38.851Z,35.70
2022-08-11T09:27:09.153Z,35.90
2022-08-11T09:29:38.944Z,36.04
2022-08-11T09:32:09.261Z,36.30
2022-08-11T09:34:39.946Z,36.50
2022-08-11T09:37:55.934Z,36.30
2022-08-11T09:40:30.827Z,35.82
2022-08-11T09:43:22.397Z,35.40
2022-08-11T09:45:54.348Z,35.26
2022-08-11T09:48:26.354Z,34.98
2022-08-11T09:50:59.254Z,34.46
2022-08-11T09:53:36.198Z,33.72
2022-08-11T09:56:38.677Z,33.16
2022-08-11T09:59:08.141Z,33.10
2022-08-11T10:01:59.647Z,33.12
2022-08-11T10:04:45.999Z,33.18
2022-08-11T10:07:20.348Z,32.80
2022-08-11T10:10:03.201Z,32.70
2022-08-11T10:12:42.780Z,32.68
2022-08-11T10:15:38.715Z,32.56
2022-08-11T10:18:42.723Z,32.40
2022-08-11T10:21:25.436Z,32.20
2022-08-11T10:24:15.218Z,32.20
2022-08-11T10:26:55.030Z,31.80
2022-08-11T10:29:52.056Z,31.80
2022-08-11T10:32:58.748Z,31.88
2022-08-11T10:35:33.186Z,31.70
2022-08-11T10:38:07.700Z,31.92
2022-08-11T10:40:41.080Z,31.92
2022-08-11T10:43:14.542Z,31.70
2022-08-11T10:46:30.396Z,31.80
2022-08-11T10:49:01.556Z,31.98
2022-08-11T10:51:53.737Z,31.90
2022-08-11T10:54:43.005Z,31.82
2022-08-11T10:57:34.200Z,31.90
2022-08-11T11:00:07.193Z,31.84
2022-08-11T11:02:36.897Z,31.60
2022-08-11T11:05:25.289Z,31.84
2022-08-11T11:08:29.873Z,32.10
2022-08-11T11:11:00.135Z,32.04
2022-08-11T11:13:53.361Z,32.10
2022-08-11T11:16:44.377Z,31.72
2022-08-11T11:19:15.563Z,31.80
2022-08-11T11:21:44.752Z,31.70
2022-08-11T11:24:42.624Z,31.64
2022-08-11T11:27:53.811Z,31.90
2022-08-11T11:30:28.245Z,31.80
2022-08-11T11:33:09.107Z,31.86
2022-08-11T11:35:45.017Z,31.80
2022-08-11T11:38:14.319Z,31.50
2022-08-11T11:40:43.948Z,31.36
2022-08-11T11:43:13.268Z,31.00
2022-08-11T11:45:43.042Z,30.80
2022-08-11T11:48:12.623Z,30.94
2022-08-11T11:50:42.131Z,31.18
2022-08-11T11:53:12.220Z,31.30
2022-08-11T11:55:41.931Z,31.30
2022-08-11T11:58:30.026Z,31.40
2022-08-11T12:01:20.319Z,31.48
2022-08-11T12:03:52.725Z,31.50
2022-08-11T12:06:24.491Z,31.50
2022-08-11T12:08:57.536Z,31.30
2022-08-11T12:11:47.119Z,31.20
2022-08-11T12:14:22.133Z,30.98
2022-08-11T12:16:51.661Z,30.80
2022-08-11T12:19:26.288Z,30.70
2022-08-11T12:22:17.706Z,30.90
2022-08-11T12:25:06.157Z,31.20
2022-08-11T12:27:38.893Z,31.50
2022-08-11T12:30:09.674Z,31.24
2022-08-11T12:32:41.654Z,31.08
2022-08-11T12:35:11.724Z,30.90
2022-08-11T12:38:01.234Z,30.60
2022-08-11T12:44:06.089Z,30.70
2022-08-11T12:46:39.070Z,30.80
2022-08-11T12:49:34.900Z,30.86
2022-08-11T12:52:15.260Z,31.10
2022-08-11T12:54:58.025Z,31.10
2022-08-11T12:57:57.386Z,31.30
2022-08-11T13:00:47.266Z,31.00
2022-08-11T13:03:39.508Z,30.74
2022-08-11T13:06:09.659Z,30.80
2022-08-11T13:08:40.295Z,30.80
2022-08-11T13:11:55.872Z,30.80
2022-08-11T13:14:19.929Z,30.80
2022-08-11T13:17:08.587Z,30.70
2022-08-11T13:19:38.598Z,30.80
2022-08-11T13:22:07.639Z,31.08
2022-08-11T13:24:37.551Z,31.30
2022-08-11T13:27:07.397Z,31.30
2022-08-11T13:29:37.034Z,31.30
2022-08-11T13:32:06.243Z,31.20
2022-08-11T13:34:41.983Z,31.20
2022-08-11T13:37:14.658Z,31.40
2022-08-11T13:39:48.709Z,31.48
2022-08-11T13:42:21.458Z,31.50
2022-08-11T13:44:50.759Z,31.30
2022-08-11T13:47:23.952Z,31.16
2022-08-11T13:49:53.253Z,30.96
2022-08-11T13:52:22.452Z,30.80
2022-08-11T13:54:53.538Z,30.72
2022-08-11T13:58:18.289Z,30.70
2022-08-11T14:00:25.094Z,30.60
2022-08-11T14:02:58.874Z,30.48
2022-08-11T14:05:34.425Z,30.42
2022-08-11T14:08:37.085Z,30.30
2022-08-11T14:12:21.692Z,30.50
2022-08-11T14:14:17.058Z,30.70
2022-08-11T14:16:48.547Z,30.60
2022-08-11T14:19:21.439Z,30.40
2022-08-11T14:22:10.894Z,30.20
2022-08-11T14:24:43.224Z,30.30
2022-08-11T14:28:30.679Z,30.40
2022-08-11T14:30:05.542Z,30.40
2022-08-11T14:32:34.756Z,30.38
2022-08-11T14:35:22.150Z,30.50
2022-08-11T14:37:51.308Z,30.44
2022-08-11T14:40:39.159Z,30.30
2022-08-11T14:44:12.255Z,30.10
2022-08-11T14:46:35.528Z,30.20
2022-08-11T14:49:05.022Z,30.26
2022-08-11T14:51:34.857Z,30.10
2022-08-11T14:54:23.206Z,30.14
2022-08-11T14:56:54.712Z,30.10
2022-08-11T14:59:26.109Z,29.90
2022-08-11T15:02:14.049Z,29.78
2022-08-11T15:04:43.348Z,29.70
2022-08-11T15:07:17.226Z,29.70
2022-08-11T15:10:11.825Z,29.70
2022-08-11T15:12:39.642Z,29.70
2022-08-11T15:15:29.193Z,29.80
2022-08-11T15:18:02.213Z,29.90
2022-08-11T15:20:53.733Z,30.00
2022-08-11T15:23:41.439Z,30.10
2022-08-11T15:26:48.836Z,29.90
2022-08-11T15:29:42.916Z,29.76
2022-08-11T15:32:22.148Z,29.50
2022-08-11T15:35:22.721Z,29.50
2022-08-11T15:37:57.949Z,29.50
2022-08-11T15:40:59.581Z,29.46
2022-08-11T15:44:15.170Z,29.42
2022-08-11T15:46:53.776Z,29.36
2022-08-11T15:50:12.721Z,29.30
2022-08-11T15:52:30.304Z,29.20
2022-08-11T15:55:02.606Z,29.18
2022-08-11T15:57:49.980Z,29.20
2022-08-11T16:00:38.532Z,29.20
2022-08-11T16:04:05.550Z,29.28
2022-08-11T16:06:18.707Z,29.10
2022-08-11T16:08:48.736Z,29.00
2022-08-11T16:11:21.858Z,29.00
2022-08-11T16:14:11.908Z,29.00
2022-08-11T16:16:43.391Z,29.00
2022-08-11T16:19:13.729Z,29.10
2022-08-11T16:21:44.359Z,29.10
2022-08-11T16:27:03.990Z,29.00
2022-08-11T16:27:14.335Z,28.94
2022-08-11T16:29:48.135Z,28.80
2022-08-11T16:32:24.088Z,28.80
2022-08-11T16:35:25.573Z,28.70
2022-08-11T16:38:15.660Z,28.60
2022-08-11T16:40:45.378Z,28.50
2022-08-11T16:43:40.170Z,28.50
2022-08-11T16:46:19.715Z,28.40
2022-08-11T16:48:53.744Z,28.40
2022-08-11T16:51:23.637Z,28.40
2022-08-11T16:54:04.798Z,28.30
2022-08-11T16:56:45.796Z,28.30
2022-08-11T16:59:32.707Z,28.20
2022-08-11T17:02:39.794Z,28.20
2022-08-11T17:05:54.716Z,28.20
2022-08-11T17:08:56.630Z,28.16
2022-08-11T17:11:50.819Z,28.10
2022-08-11T17:14:36.523Z,28.10
2022-08-11T17:17:32.122Z,28.00
2022-08-11T17:20:41.192Z,27.90
2022-08-11T17:23:20.183Z,27.84
2022-08-11T17:25:59.591Z,27.80
2022-08-11T17:28:35.385Z,27.70
2022-08-11T17:31:24.848Z,27.70
2022-08-11T17:34:16.064Z,27.60
2022-08-11T17:36:45.949Z,27.60
2022-08-11T17:39:16.415Z,27.58
2022-08-11T17:42:05.465Z,27.50
2022-08-11T17:44:54.402Z,27.40
2022-08-11T17:47:46.468Z,27.40
2022-08-11T17:50:17.825Z,27.30
2022-08-11T17:53:07.597Z,27.30
2022-08-11T17:55:58.185Z,27.22
2022-08-11T17:58:46.450Z,27.20
2022-08-11T18:01:16.356Z,27.10
2022-08-11T18:03:57.587Z,27.00
2022-08-11T18:06:33.696Z,26.94
2022-08-11T18:09:35.464Z,26.90
2022-08-11T18:12:27.397Z,26.80
2022-08-11T18:15:16.563Z,26.70
2022-08-11T18:18:04.309Z,26.60
2022-08-11T18:20:54.079Z,26.50
2022-08-11T18:23:46.835Z,26.48
2022-08-11T18:26:40.197Z,26.40
2022-08-11T18:29:29.670Z,26.30
2022-08-11T18:32:21.184Z,26.20
2022-08-11T18:35:14.353Z,26.10
2022-08-11T18:38:08.130Z,26.10
2022-08-11T18:40:57.296Z,26.00
2022-08-11T18:43:48.817Z,25.90
2022-08-11T18:46:38.804Z,25.80
2022-08-11T18:50:02.148Z,25.70
2022-08-11T18:52:50.520Z,25.58
2022-08-11T18:55:39.892Z,25.40
2022-08-11T18:58:31.312Z,25.30
2022-08-11T19:01:21.056Z,25.30
2022-08-11T19:04:11.903Z,25.16
2022-08-11T19:07:07.722Z,25.00
2022-08-11T19:09:57.402Z,24.86
2022-08-11T19:12:46.262Z,24.70
2022-08-11T19:15:34.405Z,24.60
2022-08-11T19:18:24.288Z,24.50
2022-08-11T19:21:14.174Z,24.40
2022-08-11T19:24:07.026Z,24.22
2022-08-11T19:26:55.682Z,24.10
2022-08-11T19:30:05.093Z,23.90
2022-08-11T19:32:52.960Z,23.80
2022-08-11T19:35:40.693Z,23.60
2022-08-11T19:38:28.735Z,23.50
2022-08-11T19:41:56.551Z,23.40
2022-08-11T19:44:28.165Z,23.30
2022-08-11T19:47:16.921Z,23.20
2022-08-11T19:50:05.124Z,23.10
2022-08-11T19:52:55.461Z,23.00
2022-08-11T19:55:45.855Z,22.90
2022-08-11T19:58:35.127Z,22.80
2022-08-11T20:01:24.943Z,22.70
2022-08-11T20:04:12.849Z,22.64
2022-08-11T20:07:00.988Z,22.58
2022-08-11T20:10:04.549Z,22.50
2022-08-11T20:12:57.041Z,22.30
2022-08-11T20:15:46.310Z,22.20
2022-08-11T20:18:35.170Z,22.10
2022-08-11T20:21:29.922Z,22.10
2022-08-11T20:24:20.981Z,22.00
2022-08-11T20:27:18.835Z,21.84
2022-08-11T20:30:16.415Z,21.80
2022-08-11T20:33:04.554Z,21.70
2022-08-11T20:35:55.162Z,21.60
2022-08-11T20:38:47.907Z,21.50
2022-08-11T20:41:58.967Z,21.40
2022-08-11T20:44:49.076Z,21.30
2022-08-11T20:47:56.216Z,21.20
2022-08-11T20:50:46.349Z,21.10
2022-08-11T20:53:39.344Z,21.10
2022-08-11T20:56:30.170Z,21.00
2022-08-11T20:59:21.940Z,20.90
2022-08-11T21:02:11.982Z,20.90
2022-08-11T21:05:00.599Z,20.80
2022-08-11T21:07:59.112Z,20.80
2022-08-11T21:10:53.191Z,20.70
2022-08-11T21:13:46.640Z,20.58
2022-08-11T21:16:42.963Z,20.40
2022-08-11T21:20:01.691Z,20.20
2022-08-11T21:23:10.345Z,20.10
2022-08-11T21:26:07.861Z,20.04
2022-08-11T21:28:58.917Z,20.06
2022-08-11T21:31:49.748Z,20.06
2022-08-11T21:34:41.062Z,20.00
2022-08-11T21:37:31.063Z,20.00
2022-08-11T21:40:21.628Z,19.90
2022-08-11T21:43:12.127Z,19.90
2022-08-11T21:46:02.110Z,19.80
2022-08-11T21:48:50.668Z,19.80
2022-08-11T21:51:38.191Z,19.70
2022-08-11T21:54:33.195Z,19.70
2022-08-11T21:57:22.466Z,19.70
2022-08-11T22:00:16.982Z,19.60
2022-08-11T22:03:07.045Z,19.60
2022-08-11T22:05:56.832Z,19.50
2022-08-11T22:08:45.176Z,19.50
2022-08-11T22:11:34.547Z,19.50
2022-08-11T22:14:23.614Z,19.50
2022-08-11T22:17:11.345Z,19.50
2022-08-11T22:20:01.202Z,19.40
2022-08-11T22:22:53.742Z,19.40
2022-08-11T22:25:51.539Z,19.30
2022-08-11T22:28:42.150Z,19.22
2022-08-11T22:31:31.517Z,19.20
2022-08-11T22:34:19.148Z,19.10
2022-08-11T22:37:08.725Z,19.10
2022-08-11T22:40:02.666Z,19.00
2022-08-11T22:42:52.487Z,19.00
2022-08-11T22:45:40.835Z,18.90
2022-08-11T22:48:29.721Z,18.90
2022-08-11T22:51:19.067Z,18.80
2022-08-11T22:54:08.974Z,18.62
2022-08-11T22:56:57.707Z,18.60
2022-08-11T22:59:45.954Z,18.50
2022-08-11T23:02:34.429Z,18.50
2022-08-11T23:05:22.733Z,18.50
2022-08-11T23:08:10.690Z,18.44
2022-08-11T23:10:58.835Z,18.40
2022-08-11T23:13:49.331Z,18.40
2022-08-11T23:16:40.853Z,18.40
2022-08-11T23:20:08.649Z,18.40
2022-08-11T23:22:50.052Z,18.40
2022-08-11T23:25:38.461Z,18.40
2022-08-11T23:28:28.856Z,18.36
2022-08-11T23:31:17.923Z,18.30
2022-08-11T23:34:41.561Z,18.30
2022-08-11T23:37:18.885Z,18.10
2022-08-11T23:40:06.211Z,18.00
2022-08-11T23:42:58.961Z,18.00
2022-08-11T23:45:47.105Z,17.90
2022-08-11T23:48:36.987Z,17.88
2022-08-11T23:51:25.437Z,17.80
2022-08-11T23:54:36.483Z,17.80
2022-08-11T23:57:25.277Z,17.70
